Time;durP1;ratioP1;P1;durP2;ratioP2;P2;SDS_P1;SDS_P2;PMS_P1;PMS_P2;Temp;Humidity;BMP_temperature;BMP_pressure;BME280_temperature;BME280_humidity;BME280_pressure;Samples;Min_cycle;Max_cycle;Signal;HPM_P1;HPM_P2
2022/03/23 00:00:52;;;;;;;33.85;27.23;;;6.60;99.90;;;;;;4994604;28;20050;-69
2022/03/23 00:03:18;;;;;;;35.72;26.55;;;6.60;99.90;;;;;;4994229;28;20045;-69
2022/03/23 00:05:44;;;;;;;34.75;27.63;;;6.60;99.90;;;;;;5027134;28;20556;-69
2022/03/23 00:08:10;;;;;;;35.78;26.10;;;6.50;99.90;;;;;;4993069;28;20081;-69
2022/03/23 00:10:36;;;;;;;34.00;25.42;;;6.50;99.90;;;;;;4993558;28;20072;-69
2022/03/23 00:13:03;;;;;;;34.05;25.98;;;6.50;99.90;;;;;;5027301;28;20043;-69
2022/03/23 00:15:30;;;;;;;35.70;25.27;;;6.50;99.90;;;;;;4994930;28;20048;-69
2022/03/23 00:17:57;;;;;;;34.63;26.42;;;6.40;99.90;;;;;;5024764;28;20510;-69
2022/03/23 00:20:24;;;;;;;35.95;27.17;;;6.40;99.90;;;;;;4995581;28;20125;-69
2022/03/23 00:22:51;;;;;;;34.05;26.10;;;6.40;99.90;;;;;;4995616;28;20038;-67
2022/03/23 00:25:17;;;;;;;37.60;26.52;;;6.30;99.90;;;;;;4998840;28;20048;-68
2022/03/23 00:27:43;;;;;;;32.70;26.27;;;6.30;99.90;;;;;;4995806;28;20038;-68
2022/03/23 00:30:10;;;;;;;35.25;25.88;;;6.30;99.90;;;;;;5030740;28;20046;-68
2022/03/23 00:32:36;;;;;;;38.25;25.85;;;6.20;99.90;;;;;;4998355;28;20080;-68
2022/03/23 00:35:03;;;;;;;30.08;24.27;;;6.20;99.90;;;;;;5031022;28;20077;-68
2022/03/23 00:37:29;;;;;;;35.60;26.52;;;6.10;99.90;;;;;;5029847;28;20054;-68
2022/03/23 00:39:55;;;;;;;31.60;25.40;;;6.20;99.90;;;;;;5028310;28;20060;-68
2022/03/23 00:42:21;;;;;;;32.58;24.77;;;6.10;99.90;;;;;;5030606;28;20448;-67
2022/03/23 00:44:46;;;;;;;39.13;27.50;;;6.00;99.90;;;;;;5002383;28;20065;-68
2022/03/23 00:47:12;;;;;;;33.95;26.77;;;6.00;99.90;;;;;;4995564;28;20045;-68
2022/03/23 00:49:38;;;;;;;38.35;28.45;;;6.00;99.90;;;;;;4998480;28;20052;-68
2022/03/23 00:52:07;;;;;;;39.35;29.35;;;5.90;99.90;;;;;;5014699;28;20532;-68
2022/03/23 00:54:34;;;;;;;42.80;29.60;;;5.90;99.90;;;;;;4997885;28;20042;-68
2022/03/23 00:57:01;;;;;;;41.38;29.42;;;5.90;99.90;;;;;;5031400;28;20041;-68
2022/03/23 00:59:27;;;;;;;42.72;29.05;;;5.90;99.90;;;;;;4993473;28;20050;-68
2022/03/23 01:01:53;;;;;;;37.55;28.42;;;5.90;99.90;;;;;;5015822;28;20050;-68
2022/03/23 01:04:20;;;;;;;40.67;27.67;;;5.80;99.90;;;;;;5031974;28;20037;-68
2022/03/23 01:06:46;;;;;;;37.40;28.17;;;5.80;99.90;;;;;;5028481;28;20034;-68
2022/03/23 01:09:13;;;;;;;36.47;28.27;;;5.80;99.90;;;;;;5026155;28;20053;-68
2022/03/23 01:11:39;;;;;;;40.20;27.50;;;5.80;99.90;;;;;;4995033;28;20038;-68
2022/03/23 01:14:06;;;;;;;37.55;27.90;;;5.80;99.90;;;;;;4994543;28;20042;-68
2022/03/23 01:16:32;;;;;;;38.60;27.20;;;5.80;99.90;;;;;;5028405;28;20576;-68
2022/03/23 01:18:58;;;;;;;35.33;27.35;;;5.70;99.90;;;;;;5024075;28;20367;-68
2022/03/23 01:21:24;;;;;;;36.05;26.67;;;5.70;99.90;;;;;;4995359;28;20111;-68
2022/03/23 01:23:50;;;;;;;37.28;27.83;;;5.70;99.90;;;;;;4991524;28;20042;-68
2022/03/23 01:26:17;;;;;;;36.80;27.98;;;5.70;99.90;;;;;;4994873;28;20080;-68
2022/03/23 01:28:43;;;;;;;44.08;31.15;;;5.70;99.90;;;;;;4996868;28;20140;-68
2022/03/23 01:31:10;;;;;;;39.03;28.75;;;5.60;99.90;;;;;;4993857;28;20544;-68
2022/03/23 01:33:35;;;;;;;40.25;29.70;;;5.60;99.90;;;;;;5028489;28;20078;-67
2022/03/23 01:36:01;;;;;;;39.92;28.10;;;5.60;99.90;;;;;;5006417;28;20498;-68
2022/03/23 01:38:27;;;;;;;45.85;30.52;;;5.60;99.90;;;;;;5027418;28;20116;-68
2022/03/23 01:40:53;;;;;;;33.88;26.77;;;5.50;99.90;;;;;;4993944;28;20524;-68
2022/03/23 01:43:18;;;;;;;38.55;27.10;;;5.50;99.90;;;;;;5026905;28;20037;-68
2022/03/23 01:45:44;;;;;;;36.28;27.77;;;5.50;99.90;;;;;;5027821;28;20042;-68
2022/03/23 01:48:10;;;;;;;38.25;28.63;;;5.40;99.90;;;;;;4993438;28;20042;-68
2022/03/23 01:50:36;;;;;;;35.83;26.50;;;5.40;99.90;;;;;;4995700;28;20038;-68
2022/03/23 01:53:02;;;;;;;37.67;27.08;;;5.40;99.90;;;;;;4995396;28;20058;-68
2022/03/23 01:55:28;;;;;;;38.35;28.40;;;5.40;99.90;;;;;;4981332;28;20502;-68
2022/03/23 01:57:54;;;;;;;42.75;28.88;;;5.40;99.90;;;;;;4998547;28;20034;-68
2022/03/23 02:00:21;;;;;;;37.20;27.63;;;5.30;99.90;;;;;;5024398;28;20034;-68
2022/03/23 02:02:46;;;;;;;36.60;26.85;;;5.30;99.90;;;;;;5026502;28;20038;-68
2022/03/23 02:05:13;;;;;;;37.42;26.95;;;5.30;99.90;;;;;;5027824;28;20041;-68
2022/03/23 02:07:39;;;;;;;39.53;26.75;;;5.30;99.90;;;;;;4998529;28;20553;-68
2022/03/23 02:10:06;;;;;;;34.97;26.63;;;5.20;99.90;;;;;;4996817;28;20041;-68
2022/03/23 02:12:32;;;;;;;41.80;30.90;;;5.20;99.90;;;;;;4997277;28;20114;-68
2022/03/23 02:15:00;;;;;;;36.42;27.60;;;5.20;99.90;;;;;;5003123;28;20124;-68
2022/03/23 02:17:26;;;;;;;39.03;29.08;;;5.20;99.90;;;;;;5026559;28;20045;-68
2022/03/23 02:19:52;;;;;;;37.20;27.52;;;5.10;99.90;;;;;;4998068;28;20434;-68
2022/03/23 02:22:18;;;;;;;41.10;28.73;;;5.10;99.90;;;;;;5026565;28;20049;-68
2022/03/23 02:24:46;;;;;;;38.20;29.23;;;5.10;99.90;;;;;;4999964;28;20046;-68
2022/03/23 02:27:12;;;;;;;40.35;29.08;;;5.00;99.90;;;;;;4998494;28;20045;-68
2022/03/23 02:29:38;;;;;;;36.15;28.02;;;5.00;99.90;;;;;;4997778;28;20045;-68
2022/03/23 02:32:05;;;;;;;44.63;29.35;;;5.00;99.90;;;;;;5032447;28;20050;-68
2022/03/23 02:34:31;;;;;;;38.47;27.90;;;5.00;99.90;;;;;;4998624;28;20486;-68
2022/03/23 02:36:58;;;;;;;40.65;29.95;;;4.90;99.90;;;;;;4996631;28;20121;-68
2022/03/23 02:39:27;;;;;;;39.55;30.10;;;4.90;99.90;;;;;;5031174;28;20055;-68
2022/03/23 02:41:56;;;;;;;44.17;30.33;;;4.90;99.90;;;;;;4999333;28;20430;-68
2022/03/23 02:44:23;;;;;;;44.90;31.48;;;4.90;99.90;;;;;;5032370;28;20112;-68
2022/03/23 02:46:48;;;;;;;42.20;30.20;;;4.90;99.90;;;;;;4991689;28;20045;-68
2022/03/23 02:49:20;;;;;;;39.03;28.40;;;4.90;99.90;;;;;;5029379;28;20502;-68
2022/03/23 02:51:47;;;;;;;38.13;28.67;;;4.90;99.90;;;;;;4995297;28;20450;-68
2022/03/23 03:02:40;;;;;;;38.40;28.73;;;4.80;99.90;;;;;;4998545;28;20040;-68
2022/03/23 03:05:08;;;;;;;38.10;28.02;;;4.70;99.90;;;;;;4998862;28;20054;-68
2022/03/23 03:10:20;;;;;;;39.55;28.15;;;4.70;99.90;;;;;;4994381;28;20458;-68
2022/03/23 03:12:47;;;;;;;38.78;28.73;;;4.70;99.90;;;;;;4998298;28;20100;-68
2022/03/23 03:15:14;;;;;;;36.08;28.52;;;4.60;99.90;;;;;;5017139;28;20681;-68
2022/03/23 03:17:41;;;;;;;44.20;29.23;;;4.70;99.90;;;;;;4996980;28;20037;-67
2022/03/23 03:20:08;;;;;;;37.30;28.20;;;4.60;99.90;;;;;;5029535;28;20042;-68
2022/03/23 03:22:36;;;;;;;37.10;27.48;;;4.60;99.90;;;;;;4996884;28;20065;-68
2022/03/23 03:25:02;;;;;;;37.83;27.45;;;4.60;99.90;;;;;;4997410;28;20045;-68
2022/03/23 03:27:31;;;;;;;37.85;29.33;;;4.50;99.90;;;;;;4996159;28;20042;-68
2022/03/23 03:29:56;;;;;;;40.42;29.08;;;4.50;99.90;;;;;;4995273;28;20508;-68
2022/03/23 03:32:22;;;;;;;39.55;29.27;;;4.50;99.90;;;;;;5030393;28;20113;-68
2022/03/23 03:34:48;;;;;;;37.25;27.80;;;4.50;99.90;;;;;;4994719;28;20045;-68
2022/03/23 03:37:13;;;;;;;38.90;27.38;;;4.40;99.90;;;;;;5030316;28;20490;-68
2022/03/23 03:39:39;;;;;;;38.95;29.65;;;4.40;99.90;;;;;;4998802;28;20102;-68
2022/03/23 03:42:05;;;;;;;36.17;27.05;;;4.40;99.90;;;;;;5033128;28;20390;-68
2022/03/23 03:44:31;;;;;;;37.45;27.73;;;4.40;99.90;;;;;;5026250;28;20053;-68
2022/03/23 03:46:56;;;;;;;37.40;27.90;;;4.30;99.90;;;;;;5001070;28;20034;-68
2022/03/23 03:49:22;;;;;;;37.78;28.08;;;4.30;99.90;;;;;;4996489;28;20045;-68
2022/03/23 03:51:48;;;;;;;43.10;30.30;;;4.30;99.90;;;;;;4995862;28;20119;-68
2022/03/23 03:54:14;;;;;;;37.15;27.15;;;4.30;99.90;;;;;;5024915;28;20042;-68
2022/03/23 03:56:40;;;;;;;38.90;27.33;;;4.30;99.90;;;;;;4994088;28;20164;-68
2022/03/23 03:59:06;;;;;;;34.45;26.98;;;4.30;99.90;;;;;;4998654;28;20410;-68
2022/03/23 04:01:32;;;;;;;34.00;26.42;;;4.30;99.90;;;;;;5023855;28;20030;-68
2022/03/23 04:03:57;;;;;;;37.20;27.48;;;4.30;99.90;;;;;;4998577;28;20088;-68
2022/03/23 04:06:23;;;;;;;35.88;27.20;;;4.30;99.90;;;;;;4998303;28;20052;-68
2022/03/23 04:08:49;;;;;;;38.85;26.27;;;4.20;99.90;;;;;;4992865;28;20057;-68
2022/03/23 04:11:14;;;;;;;34.75;26.48;;;4.20;99.90;;;;;;4997866;28;20128;-68
2022/03/23 04:13:40;;;;;;;39.45;27.38;;;4.20;99.90;;;;;;5027457;28;20610;-68
2022/03/23 04:16:06;;;;;;;33.33;26.70;;;4.20;99.90;;;;;;5026363;28;20053;-68
2022/03/23 04:18:31;;;;;;;41.08;28.40;;;4.20;99.90;;;;;;4998601;28;20037;-69
2022/03/23 04:20:57;;;;;;;35.78;27.30;;;4.20;99.90;;;;;;4995757;28;20034;-68
2022/03/23 04:23:23;;;;;;;37.70;26.77;;;4.20;99.90;;;;;;5029551;28;20133;-68
2022/03/23 04:25:48;;;;;;;37.95;27.73;;;4.20;99.90;;;;;;4998367;28;20535;-68
2022/03/23 04:28:14;;;;;;;40.55;28.95;;;4.10;99.90;;;;;;4993905;28;20562;-68
2022/03/23 04:30:41;;;;;;;38.75;27.92;;;4.10;99.90;;;;;;4996737;28;20073;-68
2022/03/23 04:33:07;;;;;;;37.65;27.70;;;4.10;99.90;;;;;;4999757;28;20062;-68
2022/03/23 04:35:33;;;;;;;35.97;27.20;;;4.10;99.90;;;;;;4992160;28;20065;-68
2022/03/23 04:37:59;;;;;;;42.72;28.85;;;4.10;99.90;;;;;;4997902;28;20047;-68
2022/03/23 04:40:25;;;;;;;40.92;29.63;;;4.00;99.90;;;;;;4995787;28;20087;-68
2022/03/23 04:42:51;;;;;;;40.60;29.00;;;4.00;99.90;;;;;;5031235;28;20029;-68
2022/03/23 04:45:17;;;;;;;38.78;28.45;;;4.00;99.90;;;;;;4997188;28;20103;-68
2022/03/23 04:47:44;;;;;;;36.33;27.20;;;3.90;99.90;;;;;;5001814;28;20054;-68
2022/03/23 04:50:11;;;;;;;44.53;32.25;;;3.90;99.90;;;;;;4999994;28;20065;-68
2022/03/23 04:52:39;;;;;;;41.47;29.92;;;3.90;99.90;;;;;;5029070;28;20058;-68
2022/03/23 04:55:06;;;;;;;35.85;27.63;;;3.90;99.90;;;;;;5016644;28;20137;-68
2022/03/23 04:57:32;;;;;;;39.17;27.58;;;3.90;99.90;;;;;;4998787;28;20050;-68
2022/03/23 04:59:58;;;;;;;42.08;29.25;;;4.00;99.90;;;;;;5018788;28;20430;-68
2022/03/23 05:02:25;;;;;;;43.63;29.77;;;3.80;99.90;;;;;;5013988;28;20057;-68
2022/03/23 05:04:51;;;;;;;39.95;30.05;;;3.80;99.90;;;;;;5003273;28;20045;-68
2022/03/23 05:07:17;;;;;;;40.90;28.67;;;3.80;99.90;;;;;;5031306;28;20367;-68
2022/03/23 05:09:43;;;;;;;37.88;28.02;;;3.80;99.90;;;;;;5004972;28;20052;-68
2022/03/23 05:12:09;;;;;;;41.67;29.35;;;3.80;99.90;;;;;;4999468;28;20037;-68
2022/03/23 05:14:35;;;;;;;42.65;30.33;;;3.80;99.90;;;;;;5001288;28;20045;-68
2022/03/23 05:17:01;;;;;;;42.05;30.55;;;3.80;99.90;;;;;;5002405;28;20026;-68
2022/03/23 05:19:27;;;;;;;42.50;30.42;;;3.80;99.90;;;;;;4999925;28;20034;-68
2022/03/23 05:21:53;;;;;;;46.13;29.00;;;3.70;99.90;;;;;;4998656;28;20049;-68
2022/03/23 05:24:18;;;;;;;43.42;29.95;;;3.70;99.90;;;;;;5008854;28;20026;-68
2022/03/23 05:26:44;;;;;;;42.15;29.58;;;3.70;99.90;;;;;;4998569;28;20043;-68
2022/03/23 05:29:10;;;;;;;39.72;28.85;;;3.70;99.90;;;;;;5028182;28;20109;-68
2022/03/23 05:31:37;;;;;;;39.00;27.48;;;3.70;99.90;;;;;;5027483;28;20042;-68
2022/03/23 05:34:04;;;;;;;41.03;29.45;;;3.70;99.90;;;;;;5001980;28;20512;-69
2022/03/23 05:36:30;;;;;;;40.08;29.00;;;3.60;99.90;;;;;;5036065;28;20084;-69
2022/03/23 05:38:57;;;;;;;44.15;28.95;;;3.70;99.90;;;;;;4994675;28;20465;-69
2022/03/23 05:41:24;;;;;;;42.03;28.58;;;3.70;99.90;;;;;;5000358;28;20046;-69
2022/03/23 05:43:50;;;;;;;40.17;28.23;;;3.60;99.90;;;;;;5031559;28;20129;-69
2022/03/23 05:46:15;;;;;;;39.92;29.48;;;3.70;99.90;;;;;;5040156;28;20133;-69
2022/03/23 05:48:41;;;;;;;44.00;30.38;;;3.70;99.90;;;;;;5036481;28;20037;-69
2022/03/23 05:51:07;;;;;;;45.20;29.85;;;3.70;99.90;;;;;;5038037;28;20038;-69
2022/03/23 05:53:33;;;;;;;43.33;28.55;;;3.70;99.90;;;;;;5002032;28;20046;-69
2022/03/23 05:55:59;;;;;;;39.45;29.13;;;3.70;99.90;;;;;;5003771;28;20038;-69
2022/03/23 05:58:25;;;;;;;45.95;30.42;;;3.70;99.90;;;;;;5004224;28;20445;-69
2022/03/23 06:00:51;;;;;;;37.42;28.60;;;3.80;99.90;;;;;;5022537;28;20069;-69
2022/03/23 06:03:17;;;;;;;44.58;30.25;;;3.80;99.90;;;;;;5001465;28;20038;-69
2022/03/23 06:05:42;;;;;;;36.85;30.02;;;3.80;99.90;;;;;;5005554;28;20333;-69
2022/03/23 06:08:08;;;;;;;39.05;28.48;;;3.90;99.90;;;;;;5032788;28;20053;-69
2022/03/23 06:10:34;;;;;;;38.15;27.63;;;3.90;99.90;;;;;;5041224;28;20045;-68
2022/03/23 06:12:59;;;;;;;41.97;30.02;;;4.00;99.90;;;;;;5034914;28;20119;-68
2022/03/23 06:15:25;;;;;;;42.53;30.92;;;4.10;99.90;;;;;;4996609;28;20046;-68
2022/03/23 06:17:51;;;;;;;42.58;31.65;;;4.10;99.90;;;;;;5033413;28;20057;-68
2022/03/23 06:20:16;;;;;;;42.50;32.00;;;4.20;99.90;;;;;;4996144;28;20070;-68
2022/03/23 06:22:42;;;;;;;38.63;30.83;;;4.30;99.90;;;;;;5005494;28;20030;-69
2022/03/23 06:25:08;;;;;;;42.80;31.38;;;4.40;99.90;;;;;;4997926;28;20406;-69
2022/03/23 06:27:34;;;;;;;47.83;34.50;;;4.50;99.90;;;;;;4985118;28;20159;-69
2022/03/23 06:30:01;;;;;;;45.35;32.90;;;4.60;99.90;;;;;;5037021;28;20132;-69
2022/03/23 06:32:27;;;;;;;50.88;35.35;;;4.70;99.90;;;;;;5004837;28;20045;-67
2022/03/23 06:34:53;;;;;;;49.65;34.78;;;4.80;99.90;;;;;;5000564;28;20048;-67
2022/03/23 06:37:19;;;;;;;55.90;36.42;;;4.90;99.90;;;;;;5002509;28;20035;-67
2022/03/23 06:39:44;;;;;;;54.85;39.33;;;5.10;99.90;;;;;;5036706;28;20050;-67
2022/03/23 06:42:10;;;;;;;53.47;37.85;;;5.20;99.90;;;;;;5005603;28;20029;-68
2022/03/23 06:44:38;;;;;;;56.22;36.47;;;5.30;99.90;;;;;;5033342;28;20489;-68
2022/03/23 06:47:04;;;;;;;47.15;34.28;;;5.50;99.90;;;;;;5005031;28;20050;-68
2022/03/23 06:49:29;;;;;;;50.15;38.67;;;5.60;99.90;;;;;;5032766;28;20050;-67
2022/03/23 06:51:55;;;;;;;50.10;37.97;;;5.80;99.90;;;;;;5004459;28;20425;-68
2022/03/23 06:54:21;;;;;;;55.13;39.03;;;6.00;99.90;;;;;;5033296;28;20050;-67
2022/03/23 06:56:50;;;;;;;51.95;38.35;;;6.10;99.90;;;;;;5001245;28;20493;-67
2022/03/23 06:59:16;;;;;;;54.22;38.90;;;6.30;99.90;;;;;;4990179;28;20038;-67
2022/03/23 07:01:41;;;;;;;57.65;41.85;;;6.50;99.90;;;;;;4998216;28;20540;-67
2022/03/23 07:04:07;;;;;;;54.30;40.15;;;6.70;99.90;;;;;;5032189;28;20084;-67
2022/03/23 07:06:33;;;;;;;52.22;40.20;;;7.00;99.90;;;;;;5003461;28;20414;-67
2022/03/23 07:11:42;;;;;;;50.67;37.75;;;7.40;99.90;;;;;;4994014;28;20045;-67
2022/03/23 07:14:08;;;;;;;50.83;38.33;;;7.70;99.90;;;;;;5000146;28;20461;-67
2022/03/23 07:16:34;;;;;;;44.28;35.65;;;7.90;99.90;;;;;;5023972;28;20042;-67
2022/03/23 07:18:59;;;;;;;46.05;36.08;;;8.10;99.90;;;;;;5004347;28;20049;-67
2022/03/23 07:21:25;;;;;;;43.40;35.53;;;8.30;99.90;;;;;;4994407;28;20478;-67
2022/03/23 07:23:51;;;;;;;47.20;34.67;;;8.60;99.90;;;;;;4999422;28;20410;-67
2022/03/23 07:26:16;;;;;;;45.13;35.03;;;9.10;99.90;;;;;;4998033;28;20042;-67
2022/03/23 07:28:42;;;;;;;43.10;34.10;;;9.80;99.90;;;;;;4999064;28;20041;-68
2022/03/23 07:31:08;;;;;;;45.45;35.47;;;10.40;99.90;;;;;;4998253;28;20454;-67
2022/03/23 07:33:34;;;;;;;42.53;33.60;;;11.00;99.60;;;;;;5018705;28;20042;-68
2022/03/23 07:36:01;;;;;;;38.83;33.88;;;11.60;98.40;;;;;;5031858;28;20053;-68
2022/03/23 07:38:26;;;;;;;39.35;33.22;;;12.30;97.50;;;;;;5002547;28;20450;-68
2022/03/23 07:40:52;;;;;;;36.85;31.13;;;13.00;95.50;;;;;;5002631;28;20056;-68
2022/03/23 07:43:18;;;;;;;37.00;32.95;;;13.60;94.00;;;;;;5000168;28;20034;-68
2022/03/23 07:45:44;;;;;;;36.35;30.40;;;14.30;92.20;;;;;;5004007;28;20049;-68
2022/03/23 07:48:09;;;;;;;37.50;31.52;;;14.90;90.50;;;;;;4999938;28;20136;-68
2022/03/23 07:50:35;;;;;;;35.45;30.98;;;15.40;87.00;;;;;;5006108;28;20433;-69
2022/03/23 07:53:01;;;;;;;33.42;29.77;;;15.90;83.40;;;;;;5031737;28;20042;-69
2022/03/23 07:55:26;;;;;;;34.67;30.70;;;16.40;78.30;;;;;;5005064;28;20270;-69
2022/03/23 07:57:52;;;;;;;34.65;31.02;;;16.60;75.90;;;;;;5002365;28;20049;-69
2022/03/23 08:00:18;;;;;;;31.55;28.35;;;16.90;72.50;;;;;;5000349;28;20502;-69
2022/03/23 08:02:44;;;;;;;32.72;29.50;;;17.10;69.10;;;;;;4997042;28;20048;-69
2022/03/23 08:05:10;;;;;;;33.28;30.02;;;17.40;67.70;;;;;;5003390;28;20054;-69
2022/03/23 08:07:36;;;;;;;31.40;28.20;;;17.90;66.20;;;;;;4995380;28;20204;-69
2022/03/23 08:10:02;;;;;;;31.83;28.55;;;18.20;65.10;;;;;;5002020;28;20037;-69
2022/03/23 08:12:28;;;;;;;30.40;27.45;;;18.70;62.40;;;;;;5003985;28;20069;-69
2022/03/23 08:14:54;;;;;;;30.40;27.30;;;19.20;60.10;;;;;;5006993;28;20121;-69
2022/03/23 08:17:19;;;;;;;27.95;25.35;;;19.50;57.70;;;;;;5002371;28;20045;-69
2022/03/23 08:20:32;;;;;;;27.95;25.10;;;19.80;58.00;;;;;;5001867;28;20152;-69
2022/03/23 08:22:31;;;;;;;27.73;24.85;;;19.90;57.20;;;;;;5003140;28;20042;-69
2022/03/23 08:24:56;;;;;;;29.30;25.98;;;20.30;56.00;;;;;;5002460;28;20045;-68
2022/03/23 08:27:22;;;;;;;26.33;23.63;;;20.70;54.20;;;;;;5032785;28;20124;-69
2022/03/23 08:29:48;;;;;;;27.30;24.48;;;20.90;52.00;;;;;;5000029;28;20057;-69
2022/03/23 08:32:13;;;;;;;26.73;23.80;;;21.00;50.10;;;;;;5002695;28;20305;-69
2022/03/23 08:34:39;;;;;;;25.08;22.55;;;21.10;50.50;;;;;;5000635;28;20527;-69
2022/03/23 08:37:05;;;;;;;26.58;22.88;;;21.10;48.20;;;;;;5003174;28;20039;-69
2022/03/23 08:39:30;;;;;;;23.02;20.70;;;21.20;49.20;;;;;;4998616;28;20054;-69
2022/03/23 08:41:56;;;;;;;25.30;22.80;;;21.50;47.70;;;;;;5001295;28;20038;-69
2022/03/23 08:44:22;;;;;;;23.45;19.13;;;21.60;47.20;;;;;;4999874;28;20050;-69
2022/03/23 08:46:47;;;;;;;22.23;19.88;;;21.60;44.00;;;;;;4998145;28;20096;-69
2022/03/23 08:49:13;;;;;;;21.17;18.80;;;21.70;44.80;;;;;;5000054;28;20538;-69
2022/03/23 08:51:40;;;;;;;23.52;20.92;;;21.90;44.20;;;;;;4998812;28;20042;-69
2022/03/23 08:54:05;;;;;;;23.83;21.20;;;22.00;43.40;;;;;;5001373;28;20473;-69
2022/03/23 08:56:31;;;;;;;22.60;20.30;;;22.10;44.30;;;;;;5005339;28;20069;-69
2022/03/23 08:58:57;;;;;;;24.05;21.33;;;22.40;43.40;;;;;;4998039;28;20042;-70
2022/03/23 09:01:23;;;;;;;23.08;20.80;;;22.50;42.60;;;;;;4997570;28;20480;-69
2022/03/23 09:03:49;;;;;;;23.65;21.35;;;22.60;42.10;;;;;;5002795;28;20048;-68
2022/03/23 09:06:15;;;;;;;23.70;21.30;;;22.70;43.40;;;;;;4995183;28;20441;-69
2022/03/23 09:08:41;;;;;;;22.00;19.85;;;23.00;42.90;;;;;;5006293;28;20048;-69
2022/03/23 09:11:07;;;;;;;23.23;20.55;;;23.20;42.40;;;;;;5003357;28;20500;-69
2022/03/23 09:13:33;;;;;;;21.50;19.25;;;23.40;41.40;;;;;;5004776;28;20070;-69
2022/03/23 09:15:59;;;;;;;22.02;19.83;;;23.80;40.80;;;;;;5032852;28;20108;-69
2022/03/23 09:18:26;;;;;;;20.75;18.77;;;23.80;39.40;;;;;;5001506;28;20033;-69
2022/03/23 09:20:53;;;;;;;20.50;18.48;;;23.80;38.60;;;;;;4997214;28;20126;-69
2022/03/23 09:23:19;;;;;;;19.52;17.63;;;24.00;37.80;;;;;;5002455;28;20080;-69
2022/03/23 09:25:44;;;;;;;20.05;18.02;;;23.80;37.50;;;;;;5001114;28;20397;-69
2022/03/23 09:28:11;;;;;;;17.95;16.35;;;23.70;35.50;;;;;;5001846;28;20042;-69
2022/03/23 09:30:37;;;;;;;18.05;16.33;;;23.60;34.90;;;;;;5000587;28;20108;-69
2022/03/23 09:33:03;;;;;;;15.82;14.45;;;23.40;34.10;;;;;;5003379;28;20061;-69
2022/03/23 09:35:29;;;;;;;17.63;15.65;;;23.30;33.80;;;;;;5000943;28;20042;-69
2022/03/23 09:37:56;;;;;;;16.88;15.30;;;22.80;33.40;;;;;;5003021;28;20092;-69
2022/03/23 09:40:28;;;;;;;17.55;14.98;;;23.00;34.20;;;;;;5000176;28;20085;-69
2022/03/23 09:42:55;;;;;;;16.65;14.93;;;22.90;33.00;;;;;;5001243;28;20498;-69
2022/03/23 09:46:07;;;;;;;18.23;16.52;;;23.00;33.30;;;;;;4995921;28;20482;-69
2022/03/23 09:48:12;;;;;;;18.15;16.45;;;23.10;34.00;;;;;;4995796;28;20533;-69
2022/03/23 09:50:40;;;;;;;17.85;16.15;;;23.30;34.30;;;;;;4994590;28;20042;-69
2022/03/23 09:53:06;;;;;;;17.73;16.00;;;23.30;33.00;;;;;;5001228;28;20050;-69
2022/03/23 09:55:32;;;;;;;19.13;17.23;;;23.30;33.60;;;;;;4991603;28;20082;-69
2022/03/23 09:58:00;;;;;;;19.25;16.38;;;23.40;34.30;;;;;;5002097;28;20084;-69
2022/03/23 10:00:32;;;;;;;19.25;17.02;;;23.70;34.60;;;;;;4992956;28;20046;-69
2022/03/23 10:02:57;;;;;;;18.10;16.15;;;24.00;33.60;;;;;;5000155;28;20031;-68
2022/03/23 10:05:32;;;;;;;17.88;16.27;;;23.60;33.20;;;;;;4998539;28;20172;-69
2022/03/23 10:08:40;;;;;;;18.05;16.33;;;23.60;33.40;;;;;;4998902;28;20042;-67
2022/03/23 10:11:42;;;;;;;17.23;15.50;;;23.80;31.90;;;;;;5000850;28;20038;-69
2022/03/23 10:14:30;;;;;;;16.77;15.18;;;23.80;32.80;;;;;;5002653;28;20357;-67
2022/03/23 10:17:01;;;;;;;16.42;14.88;;;24.10;32.30;;;;;;4996078;28;20050;-67
2022/03/23 10:19:27;;;;;;;17.02;15.50;;;23.90;32.50;;;;;;5004919;28;20470;-68
2022/03/23 10:21:53;;;;;;;16.73;15.23;;;23.80;32.30;;;;;;5000763;28;20169;-69
2022/03/23 10:24:19;;;;;;;16.65;15.15;;;23.80;32.80;;;;;;5001698;28;20163;-69
2022/03/23 10:26:49;;;;;;;16.30;14.80;;;24.10;33.70;;;;;;5033288;28;20139;-69
2022/03/23 10:29:24;;;;;;;16.40;14.65;;;24.40;32.80;;;;;;5002236;28;20037;-69
2022/03/23 10:32:22;;;;;;;14.77;13.43;;;24.80;31.50;;;;;;5001535;28;20122;-69
2022/03/23 10:34:53;;;;;;;12.50;11.13;;;24.80;29.20;;;;;;5001641;28;20120;-69
2022/03/23 10:37:33;;;;;;;12.75;11.55;;;24.50;29.60;;;;;;5001504;28;20078;-69
2022/03/23 10:40:06;;;;;;;12.15;10.93;;;24.60;28.60;;;;;;5006658;28;20057;-69
2022/03/23 10:42:34;;;;;;;12.57;11.38;;;24.30;28.70;;;;;;5004343;28;20112;-70
2022/03/23 10:45:12;;;;;;;12.40;11.10;;;24.40;30.00;;;;;;5009637;28;20506;-69
2022/03/23 10:47:40;;;;;;;14.50;11.13;;;24.50;29.40;;;;;;5002426;28;20121;-70
2022/03/23 10:50:15;;;;;;;15.27;11.57;;;24.50;28.90;;;;;;5010963;28;20494;-69
2022/03/23 10:52:57;;;;;;;13.75;10.25;;;24.40;29.70;;;;;;4997764;28;20038;-69
2022/03/23 10:55:28;;;;;;;13.70;10.77;;;24.60;29.60;;;;;;5000104;28;20038;-69
2022/03/23 10:58:23;;;;;;;16.08;11.18;;;24.40;28.50;;;;;;5004199;28;20389;-69
2022/03/23 11:00:50;;;;;;;12.35;10.77;;;24.30;28.30;;;;;;5003771;28;20112;-69
2022/03/23 11:03:16;;;;;;;12.27;11.15;;;24.00;29.60;;;;;;5005470;28;20389;-69
2022/03/23 11:05:47;;;;;;;12.30;9.65;;;23.80;29.70;;;;;;5034687;28;20056;-69
2022/03/23 11:08:19;;;;;;;12.18;10.35;;;24.10;30.30;;;;;;5003272;28;20117;-69
2022/03/23 11:16:29;;;;;;;12.55;10.15;;;24.10;29.80;;;;;;5003751;28;20081;-69
2022/03/23 11:19:06;;;;;;;14.32;8.13;;;24.10;29.20;;;;;;5005569;28;20124;-69
2022/03/23 11:21:32;;;;;;;13.75;9.98;;;23.80;28.50;;;;;;5038938;28;20501;-69
2022/03/23 11:23:58;;;;;;;16.65;9.68;;;23.90;29.10;;;;;;5002190;28;20046;-69
2022/03/23 11:26:26;;;;;;;14.38;9.45;;;23.60;28.80;;;;;;5004850;28;20103;-69
2022/03/23 11:28:53;;;;;;;16.60;10.20;;;23.30;28.80;;;;;;5000801;28;20398;-69
2022/03/23 11:31:18;;;;;;;16.17;10.10;;;23.60;29.20;;;;;;5001627;28;20049;-69
2022/03/23 11:33:52;;;;;;;20.88;10.38;;;24.00;30.40;;;;;;4998413;28;20117;-69
2022/03/23 11:36:22;;;;;;;14.07;9.07;;;24.40;28.60;;;;;;5004014;28;20103;-69
2022/03/23 11:38:51;;;;;;;14.27;9.98;;;24.60;28.70;;;;;;5001862;28;20045;-69
2022/03/23 11:41:19;;;;;;;13.70;9.65;;;24.70;28.80;;;;;;4991098;28;20375;-69
2022/03/23 11:43:44;;;;;;;17.63;9.48;;;24.80;29.10;;;;;;5004896;28;20038;-69
2022/03/23 11:46:11;;;;;;;17.58;10.15;;;24.70;28.50;;;;;;4997626;28;20049;-69
2022/03/23 11:49:03;;;;;;;17.63;8.57;;;24.90;30.00;;;;;;4996100;28;20502;-66
2022/03/23 11:52:04;;;;;;;16.65;8.95;;;25.00;28.50;;;;;;5006247;28;20038;-66
2022/03/23 11:57:23;;;;;;;21.80;8.55;;;24.60;29.00;;;;;;5000439;28;20088;-67
2022/03/23 11:59:49;;;;;;;17.40;9.32;;;24.50;29.00;;;;;;4999926;28;20034;-66
2022/03/23 12:02:18;;;;;;;17.38;8.60;;;24.10;28.80;;;;;;4999314;28;20025;-66
2022/03/23 12:04:44;;;;;;;19.08;8.35;;;23.90;29.10;;;;;;5000274;28;20041;-67
2022/03/23 12:07:11;;;;;;;13.80;8.52;;;24.00;29.10;;;;;;5001703;28;20037;-67
2022/03/23 12:09:37;;;;;;;19.67;9.90;;;24.20;29.60;;;;;;5001621;28;20029;-67
2022/03/23 12:12:24;;;;;;;14.82;8.52;;;24.60;29.80;;;;;;5000756;28;20485;-67
2022/03/23 12:14:50;;;;;;;17.70;9.18;;;24.80;28.80;;;;;;5004519;28;20062;-67
2022/03/23 12:17:17;;;;;;;16.85;9.35;;;24.30;28.80;;;;;;5001777;28;20469;-67
2022/03/23 12:19:55;;;;;;;17.20;9.30;;;24.30;29.10;;;;;;5035524;28;20382;-67
2022/03/23 12:22:40;;;;;;;16.65;8.85;;;24.70;29.90;;;;;;5002530;28;20046;-67
2022/03/23 12:25:35;;;;;;;20.10;9.55;;;24.80;29.30;;;;;;5001479;28;20074;-67
2022/03/23 12:28:31;;;;;;;16.60;9.00;;;24.90;29.20;;;;;;5004565;28;20050;-67
2022/03/23 12:30:57;;;;;;;20.13;9.90;;;25.30;29.70;;;;;;4995905;28;20049;-67
2022/03/23 12:33:26;;;;;;;17.42;8.75;;;25.70;29.60;;;;;;4999484;28;20379;-67
2022/03/23 12:35:58;;;;;;;16.75;8.82;;;26.00;28.50;;;;;;5003253;28;20042;-67
2022/03/23 12:38:29;;;;;;;14.18;7.38;;;26.00;28.40;;;;;;5001350;28;20133;-67
2022/03/23 12:41:05;;;;;;;13.95;6.93;;;25.60;28.00;;;;;;5034348;28;20418;-67
2022/03/23 12:43:40;;;;;;;18.55;7.10;;;25.10;28.00;;;;;;5000788;28;20134;-67
2022/03/23 12:46:18;;;;;;;17.05;6.75;;;24.70;28.50;;;;;;5003315;28;20525;-67
2022/03/23 12:57:51;;;;;;;17.25;6.88;;;25.00;28.70;;;;;;5031699;28;20116;-73
2022/03/23 13:00:49;;;;;;;18.75;7.30;;;24.60;28.90;;;;;;5016793;28;20493;-73
2022/03/23 13:03:22;;;;;;;14.23;7.25;;;24.60;29.90;;;;;;4998074;28;20139;-73
2022/03/23 13:06:00;;;;;;;17.23;7.80;;;24.90;29.10;;;;;;5031646;28;20058;-73
2022/03/23 13:08:35;;;;;;;17.17;6.93;;;24.60;28.70;;;;;;5031732;28;20568;-73